sensor_id;sensor_type;location;lat;lon;timestamp;temperature;humidity
11242;DHT22;5678;52.370;9.006;2022-07-05T00:01:42;14.00;99.90
11242;DHT22;5678;52.370;9.006;2022-07-05T00:04:10;14.00;99.90
11242;DHT22;5678;52.370;9.006;2022-07-05T00:06:38;13.90;99.90
11242;DHT22;5678;52.370;9.006;2022-07-05T00:09:27;13.90;99.90
11242;DHT22;5678;52.370;9.006;2022-07-05T00:11:57;13.90;99.90
11242;DHT22;5678;52.370;9.006;2022-07-05T00:14:25;13.80;99.90
11242;DHT22;5678;52.370;9.006;2022-07-05T00:16:53;13.80;99.90
11242;DHT22;5678;52.370;9.006;2022-07-05T00:19:21;13.80;99.90
11242;DHT22;5678;52.370;9.006;2022-07-05T00:21:49;13.80;99.90
11242;DHT22;5678;52.370;9.006;2022-07-05T00:24:17;13.80;99.90
11242;DHT22;5678;52.370;9.006;2022-07-05T00:26:44;13.80;99.90
11242;DHT22;5678;52.370;9.006;2022-07-05T00:29:14;14.00;99.90
11242;DHT22;5678;52.370;9.006;2022-07-05T00:31:42;13.80;99.90
11242;DHT22;5678;52.370;9.006;2022-07-05T00:34:10;15.00;99.90
11242;DHT22;5678;52.370;9.006;2022-07-05T00:36:38;13.70;99.90
11242;DHT22;5678;52.370;9.006;2022-07-05T00:39:06;13.70;99.90
11242;DHT22;5678;52.370;9.006;2022-07-05T00:41:35;13.70;99.90
11242;DHT22;5678;52.370;9.006;2022-07-05T00:44:05;13.70;99.90
11242;DHT22;5678;52.370;9.006;2022-07-05T00:46:37;13.60;99.90
11242;DHT22;5678;52.370;9.006;2022-07-05T00:49:06;13.60;99.90
11242;DHT22;5678;52.370;9.006;2022-07-05T00:51:37;13.50;99.90
11242;DHT22;5678;52.370;9.006;2022-07-05T00:54:26;13.50;99.90
11242;DHT22;5678;52.370;9.006;2022-07-05T00:56:54;13.40;99.90
11242;DHT22;5678;52.370;9.006;2022-07-05T00:59:24;13.40;99.90
11242;DHT22;5678;52.370;9.006;2022-07-05T01:01:54;13.30;99.90
11242;DHT22;5678;52.370;9.006;2022-07-05T01:04:22;13.30;99.90
11242;DHT22;5678;52.370;9.006;2022-07-05T01:06:51;13.30;99.90
11242;DHT22;5678;52.370;9.006;2022-07-05T01:09:21;13.30;99.90
11242;DHT22;5678;52.370;9.006;2022-07-05T01:11:50;13.40;99.90
11242;DHT22;5678;52.370;9.006;2022-07-05T01:14:20;13.30;99.90
11242;DHT22;5678;52.370;9.006;2022-07-05T01:16:49;13.30;99.90
11242;DHT22;5678;52.370;9.006;2022-07-05T01:19:20;13.30;99.90
11242;DHT22;5678;52.370;9.006;2022-07-05T01:21:49;13.30;99.90
11242;DHT22;5678;52.370;9.006;2022-07-05T01:24:19;13.30;99.90
11242;DHT22;5678;52.370;9.006;2022-07-05T01:26:51;13.40;99.90
11242;DHT22;5678;52.370;9.006;2022-07-05T01:29:20;13.40;99.90
11242;DHT22;5678;52.370;9.006;2022-07-05T01:31:48;13.40;99.90
11242;DHT22;5678;52.370;9.006;2022-07-05T01:34:16;13.50;99.90
11242;DHT22;5678;52.370;9.006;2022-07-05T01:36:44;13.50;99.90
11242;DHT22;5678;52.370;9.006;2022-07-05T01:39:12;13.50;99.90
11242;DHT22;5678;52.370;9.006;2022-07-05T01:41:41;13.50;99.90
11242;DHT22;5678;52.370;9.006;2022-07-05T01:44:11;13.50;99.90
11242;DHT22;5678;52.370;9.006;2022-07-05T01:46:40;13.50;99.90
11242;DHT22;5678;52.370;9.006;2022-07-05T01:49:11;13.60;99.90
11242;DHT22;5678;52.370;9.006;2022-07-05T01:51:44;13.60;99.90
11242;DHT22;5678;52.370;9.006;2022-07-05T01:54:15;13.60;99.90
11242;DHT22;5678;52.370;9.006;2022-07-05T01:56:44;13.60;99.90
11242;DHT22;5678;52.370;9.006;2022-07-05T01:59:12;13.60;99.90
11242;DHT22;5678;52.370;9.006;2022-07-05T02:01:41;13.70;99.90
11242;DHT22;5678;52.370;9.006;2022-07-05T02:04:10;13.70;99.90
11242;DHT22;5678;52.370;9.006;2022-07-05T02:06:38;13.60;99.90
11242;DHT22;5678;52.370;9.006;2022-07-05T02:09:07;13.60;99.90
11242;DHT22;5678;52.370;9.006;2022-07-05T02:11:35;13.60;99.90
11242;DHT22;5678;52.370;9.006;2022-07-05T02:14:04;13.60;99.90
11242;DHT22;5678;52.370;9.006;2022-07-05T02:16:32;13.60;99.90
11242;DHT22;5678;52.370;9.006;2022-07-05T02:19:01;13.60;99.90
11242;DHT22;5678;52.370;9.006;2022-07-05T02:21:29;13.70;99.90
11242;DHT22;5678;52.370;9.006;2022-07-05T02:23:57;13.60;99.90
11242;DHT22;5678;52.370;9.006;2022-07-05T02:26:25;13.50;99.90
11242;DHT22;5678;52.370;9.006;2022-07-05T02:28:53;13.50;99.90
11242;DHT22;5678;52.370;9.006;2022-07-05T02:31:22;13.50;99.90
11242;DHT22;5678;52.370;9.006;2022-07-05T02:33:50;13.50;99.90
11242;DHT22;5678;52.370;9.006;2022-07-05T02:36:19;13.50;99.90
11242;DHT22;5678;52.370;9.006;2022-07-05T02:38:47;13.50;99.90
11242;DHT22;5678;52.370;9.006;2022-07-05T02:41:16;13.60;99.90
11242;DHT22;5678;52.370;9.006;2022-07-05T02:43:44;13.50;99.90
11242;DHT22;5678;52.370;9.006;2022-07-05T02:46:12;13.50;99.90
11242;DHT22;5678;52.370;9.006;2022-07-05T02:48:41;13.50;99.90
11242;DHT22;5678;52.370;9.006;2022-07-05T02:51:09;13.50;99.90
11242;DHT22;5678;52.370;9.006;2022-07-05T02:53:37;13.50;99.90
11242;DHT22;5678;52.370;9.006;2022-07-05T02:56:05;13.50;99.90
11242;DHT22;5678;52.370;9.006;2022-07-05T02:58:33;13.50;99.90
11242;DHT22;5678;52.370;9.006;2022-07-05T03:01:01;13.50;99.90
11242;DHT22;5678;52.370;9.006;2022-07-05T03:03:29;13.50;99.90
11242;DHT22;5678;52.370;9.006;2022-07-05T03:05:59;13.40;99.90
11242;DHT22;5678;52.370;9.006;2022-07-05T03:08:26;13.40;99.90
11242;DHT22;5678;52.370;9.006;2022-07-05T03:10:54;13.40;99.90
11242;DHT22;5678;52.370;9.006;2022-07-05T03:13:22;13.40;99.90
11242;DHT22;5678;52.370;9.006;2022-07-05T03:15:50;13.40;99.90
11242;DHT22;5678;52.370;9.006;2022-07-05T03:18:18;13.40;99.90
11242;DHT22;5678;52.370;9.006;2022-07-05T03:20:46;13.40;99.90
11242;DHT22;5678;52.370;9.006;2022-07-05T03:23:15;13.40;99.90
11242;DHT22;5678;52.370;9.006;2022-07-05T03:25:43;13.40;99.90
11242;DHT22;5678;52.370;9.006;2022-07-05T03:28:11;13.40;99.90
11242;DHT22;5678;52.370;9.006;2022-07-05T03:30:39;13.40;99.90
11242;DHT22;5678;52.370;9.006;2022-07-05T03:33:07;13.40;99.90
11242;DHT22;5678;52.370;9.006;2022-07-05T03:35:35;13.40;99.90
11242;DHT22;5678;52.370;9.006;2022-07-05T03:38:03;13.40;99.90
11242;DHT22;5678;52.370;9.006;2022-07-05T03:40:32;13.40;99.90
11242;DHT22;5678;52.370;9.006;2022-07-05T03:43:00;13.40;99.90
11242;DHT22;5678;52.370;9.006;2022-07-05T03:45:28;13.50;99.90
11242;DHT22;5678;52.370;9.006;2022-07-05T03:47:57;13.50;99.90
11242;DHT22;5678;52.370;9.006;2022-07-05T03:50:46;13.50;99.90
11242;DHT22;5678;52.370;9.006;2022-07-05T03:53:13;13.50;99.90
11242;DHT22;5678;52.370;9.006;2022-07-05T03:55:43;13.50;99.90
11242;DHT22;5678;52.370;9.006;2022-07-05T03:58:11;13.50;99.90
11242;DHT22;5678;52.370;9.006;2022-07-05T04:00:39;13.50;99.90
11242;DHT22;5678;52.370;9.006;2022-07-05T04:03:07;13.60;99.90
11242;DHT22;5678;52.370;9.006;2022-07-05T04:05:35;13.60;99.90
11242;DHT22;5678;52.370;9.006;2022-07-05T04:08:03;13.60;99.90
11242;DHT22;5678;52.370;9.006;2022-07-05T04:10:31;13.60;99.90
11242;DHT22;5678;52.370;9.006;2022-07-05T04:13:00;13.60;99.90
11242;DHT22;5678;52.370;9.006;2022-07-05T04:15:28;13.90;99.90
11242;DHT22;5678;52.370;9.006;2022-07-05T04:17:56;13.60;99.90
11242;DHT22;5678;52.370;9.006;2022-07-05T04:20:24;13.70;99.90
11242;DHT22;5678;52.370;9.006;2022-07-05T04:22:52;13.70;99.90
11242;DHT22;5678;52.370;9.006;2022-07-05T04:25:23;13.70;99.90
11242;DHT22;5678;52.370;9.006;2022-07-05T04:27:52;13.90;99.90
11242;DHT22;5678;52.370;9.006;2022-07-05T04:30:23;14.00;99.90
11242;DHT22;5678;52.370;9.006;2022-07-05T04:32:51;14.10;99.90
11242;DHT22;5678;52.370;9.006;2022-07-05T04:35:19;14.30;99.90
11242;DHT22;5678;52.370;9.006;2022-07-05T04:37:48;14.60;99.90
11242;DHT22;5678;52.370;9.006;2022-07-05T04:40:16;14.90;99.90
11242;DHT22;5678;52.370;9.006;2022-07-05T04:42:44;15.00;99.90
11242;DHT22;5678;52.370;9.006;2022-07-05T04:45:12;15.20;99.90
11242;DHT22;5678;52.370;9.006;2022-07-05T04:47:41;15.40;99.90
11242;DHT22;5678;52.370;9.006;2022-07-05T04:50:09;15.50;99.90
11242;DHT22;5678;52.370;9.006;2022-07-05T04:52:38;15.60;99.90
11242;DHT22;5678;52.370;9.006;2022-07-05T04:55:06;15.80;99.90
11242;DHT22;5678;52.370;9.006;2022-07-05T04:57:38;15.90;99.90
11242;DHT22;5678;52.370;9.006;2022-07-05T05:00:09;15.90;99.90
11242;DHT22;5678;52.370;9.006;2022-07-05T05:02:37;16.20;99.90
11242;DHT22;5678;52.370;9.006;2022-07-05T05:05:07;16.40;99.90
11242;DHT22;5678;52.370;9.006;2022-07-05T05:07:35;16.70;99.90
11242;DHT22;5678;52.370;9.006;2022-07-05T05:10:06;17.00;99.90
11242;DHT22;5678;52.370;9.006;2022-07-05T05:12:34;17.20;99.90
11242;DHT22;5678;52.370;9.006;2022-07-05T05:15:02;17.30;99.90
11242;DHT22;5678;52.370;9.006;2022-07-05T05:17:34;17.30;99.90
11242;DHT22;5678;52.370;9.006;2022-07-05T05:20:09;17.50;99.90
11242;DHT22;5678;52.370;9.006;2022-07-05T05:22:37;17.70;99.90
11242;DHT22;5678;52.370;9.006;2022-07-05T05:25:06;17.90;99.90
11242;DHT22;5678;52.370;9.006;2022-07-05T05:27:34;18.20;99.90
11242;DHT22;5678;52.370;9.006;2022-07-05T05:30:03;18.20;99.90
11242;DHT22;5678;52.370;9.006;2022-07-05T05:32:31;18.20;99.90
11242;DHT22;5678;52.370;9.006;2022-07-05T05:34:58;18.40;99.90
11242;DHT22;5678;52.370;9.006;2022-07-05T05:37:28;18.60;99.90
11242;DHT22;5678;52.370;9.006;2022-07-05T05:39:56;19.10;99.90
11242;DHT22;5678;52.370;9.006;2022-07-05T05:42:23;19.60;99.90
11242;DHT22;5678;52.370;9.006;2022-07-05T05:44:51;20.00;99.90
11242;DHT22;5678;52.370;9.006;2022-07-05T05:47:19;20.30;99.90
11242;DHT22;5678;52.370;9.006;2022-07-05T05:49:47;20.30;99.90
11242;DHT22;5678;52.370;9.006;2022-07-05T05:52:15;20.40;99.90
11242;DHT22;5678;52.370;9.006;2022-07-05T05:54:44;20.60;99.90
11242;DHT22;5678;52.370;9.006;2022-07-05T05:57:12;21.10;99.90
11242;DHT22;5678;52.370;9.006;2022-07-05T05:59:40;21.30;99.90
11242;DHT22;5678;52.370;9.006;2022-07-05T06:02:09;21.40;99.90
11242;DHT22;5678;52.370;9.006;2022-07-05T06:04:37;21.70;99.90
11242;DHT22;5678;52.370;9.006;2022-07-05T06:07:05;21.90;99.90
11242;DHT22;5678;52.370;9.006;2022-07-05T06:09:33;22.40;99.90
11242;DHT22;5678;52.370;9.006;2022-07-05T06:12:02;22.80;99.90
11242;DHT22;5678;52.370;9.006;2022-07-05T06:14:30;22.80;99.90
11242;DHT22;5678;52.370;9.006;2022-07-05T06:16:58;22.90;99.90
11242;DHT22;5678;52.370;9.006;2022-07-05T06:19:26;22.90;99.90
11242;DHT22;5678;52.370;9.006;2022-07-05T06:21:54;23.20;99.90
11242;DHT22;5678;52.370;9.006;2022-07-05T06:24:26;23.50;99.90
11242;DHT22;5678;52.370;9.006;2022-07-05T06:26:53;23.70;99.90
11242;DHT22;5678;52.370;9.006;2022-07-05T06:29:23;23.70;99.90
11242;DHT22;5678;52.370;9.006;2022-07-05T06:31:51;23.50;99.90
11242;DHT22;5678;52.370;9.006;2022-07-05T06:34:19;23.40;99.90
11242;DHT22;5678;52.370;9.006;2022-07-05T06:36:46;23.50;99.90
11242;DHT22;5678;52.370;9.006;2022-07-05T06:39:14;23.40;99.90
11242;DHT22;5678;52.370;9.006;2022-07-05T06:41:42;23.60;99.90
11242;DHT22;5678;52.370;9.006;2022-07-05T06:44:10;23.80;99.90
11242;DHT22;5678;52.370;9.006;2022-07-05T06:46:59;23.80;99.90
11242;DHT22;5678;52.370;9.006;2022-07-05T06:49:27;24.00;99.90
11242;DHT22;5678;52.370;9.006;2022-07-05T06:51:55;24.20;99.90
11242;DHT22;5678;52.370;9.006;2022-07-05T06:54:23;24.30;99.90
11242;DHT22;5678;52.370;9.006;2022-07-05T06:57:11;24.40;99.90
11242;DHT22;5678;52.370;9.006;2022-07-05T06:59:56;24.70;99.90
11242;DHT22;5678;52.370;9.006;2022-07-05T07:02:27;24.70;99.90
11242;DHT22;5678;52.370;9.006;2022-07-05T07:04:55;24.70;99.90
11242;DHT22;5678;52.370;9.006;2022-07-05T07:07:41;24.60;99.90
11242;DHT22;5678;52.370;9.006;2022-07-05T07:10:27;24.40;99.90
11242;DHT22;5678;52.370;9.006;2022-07-05T07:12:56;24.40;99.90
11242;DHT22;5678;52.370;9.006;2022-07-05T07:15:24;24.40;99.90
11242;DHT22;5678;52.370;9.006;2022-07-05T07:17:53;24.50;99.90
11242;DHT22;5678;52.370;9.006;2022-07-05T07:20:21;24.50;99.90
11242;DHT22;5678;52.370;9.006;2022-07-05T07:22:49;24.40;99.90
11242;DHT22;5678;52.370;9.006;2022-07-05T07:25:17;24.50;99.90
11242;DHT22;5678;52.370;9.006;2022-07-05T07:27:48;24.50;99.90
11242;DHT22;5678;52.370;9.006;2022-07-05T07:30:18;24.40;99.90
11242;DHT22;5678;52.370;9.006;2022-07-05T07:32:47;24.30;99.90
11242;DHT22;5678;52.370;9.006;2022-07-05T07:35:16;24.10;99.90
11242;DHT22;5678;52.370;9.006;2022-07-05T07:37:45;23.80;99.90
11242;DHT22;5678;52.370;9.006;2022-07-05T07:40:13;23.60;99.90
11242;DHT22;5678;52.370;9.006;2022-07-05T07:42:41;23.70;99.90
11242;DHT22;5678;52.370;9.006;2022-07-05T07:45:10;23.70;99.90
11242;DHT22;5678;52.370;9.006;2022-07-05T07:47:38;23.70;99.90
11242;DHT22;5678;52.370;9.006;2022-07-05T07:50:07;23.70;99.90
11242;DHT22;5678;52.370;9.006;2022-07-05T07:52:36;23.80;99.90
11242;DHT22;5678;52.370;9.006;2022-07-05T07:55:05;23.70;99.90
11242;DHT22;5678;52.370;9.006;2022-07-05T07:57:34;23.90;99.90
11242;DHT22;5678;52.370;9.006;2022-07-05T08:00:03;24.00;99.90
11242;DHT22;5678;52.370;9.006;2022-07-05T08:02:31;24.30;99.90
11242;DHT22;5678;52.370;9.006;2022-07-05T08:04:59;24.80;99.90
11242;DHT22;5678;52.370;9.006;2022-07-05T08:07:28;25.20;99.90
11242;DHT22;5678;52.370;9.006;2022-07-05T08:09:57;25.10;99.90
11242;DHT22;5678;52.370;9.006;2022-07-05T08:12:25;25.40;99.90
11242;DHT22;5678;52.370;9.006;2022-07-05T08:14:53;25.80;73.50
11242;DHT22;5678;52.370;9.006;2022-07-05T08:17:21;26.10;67.70
11242;DHT22;5678;52.370;9.006;2022-07-05T08:19:49;26.40;72.90
11242;DHT22;5678;52.370;9.006;2022-07-05T08:22:35;26.60;65.20
11242;DHT22;5678;52.370;9.006;2022-07-05T08:25:05;26.50;47.70
11242;DHT22;5678;52.370;9.006;2022-07-05T08:27:33;26.70;43.60
11242;DHT22;5678;52.370;9.006;2022-07-05T08:30:01;26.40;24.50
11242;DHT22;5678;52.370;9.006;2022-07-05T08:32:29;25.80;26.80
11242;DHT22;5678;52.370;9.006;2022-07-05T08:34:57;25.60;20.30
11242;DHT22;5678;52.370;9.006;2022-07-05T08:37:24;25.70;18.40
11242;DHT22;5678;52.370;9.006;2022-07-05T08:39:52;25.90;21.40
11242;DHT22;5678;52.370;9.006;2022-07-05T08:42:24;25.90;12.20
11242;DHT22;5678;52.370;9.006;2022-07-05T08:44:51;25.80;13.90
11242;DHT22;5678;52.370;9.006;2022-07-05T08:47:19;26.20;18.20
11242;DHT22;5678;52.370;9.006;2022-07-05T08:49:49;26.20;13.70
11242;DHT22;5678;52.370;9.006;2022-07-05T08:52:19;25.80;13.70
11242;DHT22;5678;52.370;9.006;2022-07-05T08:54:49;25.60;16.70
11242;DHT22;5678;52.370;9.006;2022-07-05T08:57:18;25.70;15.70
11242;DHT22;5678;52.370;9.006;2022-07-05T08:59:47;26.00;20.30
11242;DHT22;5678;52.370;9.006;2022-07-05T09:02:16;26.20;13.50
11242;DHT22;5678;52.370;9.006;2022-07-05T09:04:45;26.10;14.40
11242;DHT22;5678;52.370;9.006;2022-07-05T09:07:16;26.10;8.70
11242;DHT22;5678;52.370;9.006;2022-07-05T09:09:47;26.00;5.00
11242;DHT22;5678;52.370;9.006;2022-07-05T09:12:17;26.10;22.20
11242;DHT22;5678;52.370;9.006;2022-07-05T09:14:50;26.10;5.50
11242;DHT22;5678;52.370;9.006;2022-07-05T09:17:18;25.80;4.70
11242;DHT22;5678;52.370;9.006;2022-07-05T09:20:05;25.50;3.40
11242;DHT22;5678;52.370;9.006;2022-07-05T09:22:45;25.30;5.10
11242;DHT22;5678;52.370;9.006;2022-07-05T09:25:16;25.00;3.40
11242;DHT22;5678;52.370;9.006;2022-07-05T09:27:48;24.70;7.10
11242;DHT22;5678;52.370;9.006;2022-07-05T09:30:32;24.40;8.70
11242;DHT22;5678;52.370;9.006;2022-07-05T09:33:07;24.10;11.90
11242;DHT22;5678;52.370;9.006;2022-07-05T09:35:36;24.10;15.50
11242;DHT22;5678;52.370;9.006;2022-07-05T09:38:04;24.40;19.80
11242;DHT22;5678;52.370;9.006;2022-07-05T09:40:33;24.80;17.70
11242;DHT22;5678;52.370;9.006;2022-07-05T09:43:13;25.20;16.80
11242;DHT22;5678;52.370;9.006;2022-07-05T09:45:52;25.80;10.60
11242;DHT22;5678;52.370;9.006;2022-07-05T09:48:21;25.90;7.50
11242;DHT22;5678;52.370;9.006;2022-07-05T09:51:04;25.70;6.90
11242;DHT22;5678;52.370;9.006;2022-07-05T09:53:54;25.50;7.40
11242;DHT22;5678;52.370;9.006;2022-07-05T09:56:27;25.30;5.50
11242;DHT22;5678;52.370;9.006;2022-07-05T09:59:12;25.20;4.60
11242;DHT22;5678;52.370;9.006;2022-07-05T10:01:42;25.60;7.30
11242;DHT22;5678;52.370;9.006;2022-07-05T10:04:10;26.10;7.70
11242;DHT22;5678;52.370;9.006;2022-07-05T10:06:38;26.60;4.00
11242;DHT22;5678;52.370;9.006;2022-07-05T10:09:08;26.70;1.00
11242;DHT22;5678;52.370;9.006;2022-07-05T10:11:41;26.50;1.00
11242;DHT22;5678;52.370;9.006;2022-07-05T10:14:16;26.00;1.00
11242;DHT22;5678;52.370;9.006;2022-07-05T10:16:57;25.60;1.00
11242;DHT22;5678;52.370;9.006;2022-07-05T10:19:32;25.80;1.00
11242;DHT22;5678;52.370;9.006;2022-07-05T10:22:01;26.10;1.00
11242;DHT22;5678;52.370;9.006;2022-07-05T10:24:48;26.70;1.00
11242;DHT22;5678;52.370;9.006;2022-07-05T10:27:17;27.00;1.00
11242;DHT22;5678;52.370;9.006;2022-07-05T10:29:46;26.80;1.00
11242;DHT22;5678;52.370;9.006;2022-07-05T10:32:17;26.20;1.00
11242;DHT22;5678;52.370;9.006;2022-07-05T10:34:47;25.60;1.00
11242;DHT22;5678;52.370;9.006;2022-07-05T10:37:22;25.30;1.00
11242;DHT22;5678;52.370;9.006;2022-07-05T10:39:52;25.60;1.00
11242;DHT22;5678;52.370;9.006;2022-07-05T10:42:21;25.90;1.00
11242;DHT22;5678;52.370;9.006;2022-07-05T10:44:49;26.50;1.00
11242;DHT22;5678;52.370;9.006;2022-07-05T10:47:18;26.80;1.00
11242;DHT22;5678;52.370;9.006;2022-07-05T10:50:00;26.70;1.00
11242;DHT22;5678;52.370;9.006;2022-07-05T10:52:29;26.50;1.00
11242;DHT22;5678;52.370;9.006;2022-07-05T10:55:21;26.30;1.00
11242;DHT22;5678;52.370;9.006;2022-07-05T10:58:18;26.20;1.00
11242;DHT22;5678;52.370;9.006;2022-07-05T11:00:48;26.00;1.00
11242;DHT22;5678;52.370;9.006;2022-07-05T11:03:37;25.90;1.00
11242;DHT22;5678;52.370;9.006;2022-07-05T11:06:06;25.90;1.00
11242;DHT22;5678;52.370;9.006;2022-07-05T11:12:04;26.40;1.00
11242;DHT22;5678;52.370;9.006;2022-07-05T11:14:53;26.40;1.00
11242;DHT22;5678;52.370;9.006;2022-07-05T11:17:24;26.50;1.00
11242;DHT22;5678;52.370;9.006;2022-07-05T11:20:26;26.30;1.00
11242;DHT22;5678;52.370;9.006;2022-07-05T11:23:09;26.10;1.00
11242;DHT22;5678;52.370;9.006;2022-07-05T11:25:42;25.80;1.00
11242;DHT22;5678;52.370;9.006;2022-07-05T11:28:17;25.40;1.00
11242;DHT22;5678;52.370;9.006;2022-07-05T11:30:48;25.20;1.00
11242;DHT22;5678;52.370;9.006;2022-07-05T11:33:26;25.10;1.00
11242;DHT22;5678;52.370;9.006;2022-07-05T11:35:57;25.00;1.00
11242;DHT22;5678;52.370;9.006;2022-07-05T11:38:25;25.00;1.00
11242;DHT22;5678;52.370;9.006;2022-07-05T11:41:14;24.90;1.00
11242;DHT22;5678;52.370;9.006;2022-07-05T11:43:42;24.70;1.00
11242;DHT22;5678;52.370;9.006;2022-07-05T11:46:11;25.20;1.00
11242;DHT22;5678;52.370;9.006;2022-07-05T11:48:59;26.00;1.00
11242;DHT22;5678;52.370;9.006;2022-07-05T11:51:29;26.30;1.00
11242;DHT22;5678;52.370;9.006;2022-07-05T11:53:57;26.40;1.00
11242;DHT22;5678;52.370;9.006;2022-07-05T11:56:44;26.30;1.00
11242;DHT22;5678;52.370;9.006;2022-07-05T11:59:19;26.20;1.00
11242;DHT22;5678;52.370;9.006;2022-07-05T12:01:47;26.30;1.00
11242;DHT22;5678;52.370;9.006;2022-07-05T12:04:21;26.20;1.00
11242;DHT22;5678;52.370;9.006;2022-07-05T12:06:51;25.90;1.00
11242;DHT22;5678;52.370;9.006;2022-07-05T12:09:23;25.80;1.00
11242;DHT22;5678;52.370;9.006;2022-07-05T12:11:52;25.90;1.00
11242;DHT22;5678;52.370;9.006;2022-07-05T12:14:46;26.30;1.00
11242;DHT22;5678;52.370;9.006;2022-07-05T12:17:15;26.60;1.00
11242;DHT22;5678;52.370;9.006;2022-07-05T12:19:51;26.40;1.00
11242;DHT22;5678;52.370;9.006;2022-07-05T12:22:29;26.30;1.00
11242;DHT22;5678;52.370;9.006;2022-07-05T12:24:57;26.20;1.00
11242;DHT22;5678;52.370;9.006;2022-07-05T12:27:26;25.90;1.00
11242;DHT22;5678;52.370;9.006;2022-07-05T12:29:55;25.60;1.00
11242;DHT22;5678;52.370;9.006;2022-07-05T12:32:23;25.50;1.00
11242;DHT22;5678;52.370;9.006;2022-07-05T12:34:51;25.50;1.00
11242;DHT22;5678;52.370;9.006;2022-07-05T12:37:20;25.70;1.00
11242;DHT22;5678;52.370;9.006;2022-07-05T12:40:01;25.90;1.00
11242;DHT22;5678;52.370;9.006;2022-07-05T12:42:32;26.10;1.00
11242;DHT22;5678;52.370;9.006;2022-07-05T12:45:10;26.00;1.00
11242;DHT22;5678;52.370;9.006;2022-07-05T12:47:57;26.30;1.00
11242;DHT22;5678;52.370;9.006;2022-07-05T12:50:29;26.60;1.00
11242;DHT22;5678;52.370;9.006;2022-07-05T12:53:19;26.70;1.00
11242;DHT22;5678;52.370;9.006;2022-07-05T12:56:07;26.70;1.00
11242;DHT22;5678;52.370;9.006;2022-07-05T12:58:55;26.40;1.00
11242;DHT22;5678;52.370;9.006;2022-07-05T13:01:25;26.20;1.00
11242;DHT22;5678;52.370;9.006;2022-07-05T13:03:57;26.20;1.00
11242;DHT22;5678;52.370;9.006;2022-07-05T13:06:46;26.10;1.00
11242;DHT22;5678;52.370;9.006;2022-07-05T13:09:16;26.10;1.00
11242;DHT22;5678;52.370;9.006;2022-07-05T13:11:45;26.20;1.00
11242;DHT22;5678;52.370;9.006;2022-07-05T13:14:13;26.40;1.00
11242;DHT22;5678;52.370;9.006;2022-07-05T13:16:41;26.70;1.00
11242;DHT22;5678;52.370;9.006;2022-07-05T13:19:11;26.90;1.00
11242;DHT22;5678;52.370;9.006;2022-07-05T13:21:40;27.00;1.00
11242;DHT22;5678;52.370;9.006;2022-07-05T13:24:08;26.70;1.00
11242;DHT22;5678;52.370;9.006;2022-07-05T13:26:35;26.60;1.00
11242;DHT22;5678;52.370;9.006;2022-07-05T13:29:05;26.50;1.00
11242;DHT22;5678;52.370;9.006;2022-07-05T13:31:33;26.50;1.00
11242;DHT22;5678;52.370;9.006;2022-07-05T13:34:01;26.50;1.00
11242;DHT22;5678;52.370;9.006;2022-07-05T13:36:29;26.60;1.00
11242;DHT22;5678;52.370;9.006;2022-07-05T13:38:57;26.80;1.00
11242;DHT22;5678;52.370;9.006;2022-07-05T13:41:25;26.90;1.00
11242;DHT22;5678;52.370;9.006;2022-07-05T13:43:53;27.00;1.00
11242;DHT22;5678;52.370;9.006;2022-07-05T13:46:22;27.10;1.00
11242;DHT22;5678;52.370;9.006;2022-07-05T13:48:50;27.40;1.00
11242;DHT22;5678;52.370;9.006;2022-07-05T13:51:19;27.60;1.00
11242;DHT22;5678;52.370;9.006;2022-07-05T13:53:54;27.60;1.00
11242;DHT22;5678;52.370;9.006;2022-07-05T13:56:22;27.60;1.00
11242;DHT22;5678;52.370;9.006;2022-07-05T13:58:50;27.70;1.00
11242;DHT22;5678;52.370;9.006;2022-07-05T14:01:18;27.70;1.00
11242;DHT22;5678;52.370;9.006;2022-07-05T14:03:55;27.70;1.00
11242;DHT22;5678;52.370;9.006;2022-07-05T14:06:25;27.60;1.00
11242;DHT22;5678;52.370;9.006;2022-07-05T14:08:53;27.50;1.00
11242;DHT22;5678;52.370;9.006;2022-07-05T14:11:21;27.20;1.00
11242;DHT22;5678;52.370;9.006;2022-07-05T14:13:51;27.10;1.00
11242;DHT22;5678;52.370;9.006;2022-07-05T14:16:19;27.20;1.00
11242;DHT22;5678;52.370;9.006;2022-07-05T14:18:47;27.40;1.00
11242;DHT22;5678;52.370;9.006;2022-07-05T14:21:17;27.50;1.00
11242;DHT22;5678;52.370;9.006;2022-07-05T14:23:59;27.50;1.00
11242;DHT22;5678;52.370;9.006;2022-07-05T14:26:27;27.70;1.00
11242;DHT22;5678;52.370;9.006;2022-07-05T14:28:55;27.80;1.00
11242;DHT22;5678;52.370;9.006;2022-07-05T14:31:23;27.50;1.00
11242;DHT22;5678;52.370;9.006;2022-07-05T14:33:51;27.30;1.00
11242;DHT22;5678;52.370;9.006;2022-07-05T14:36:21;27.10;1.00
11242;DHT22;5678;52.370;9.006;2022-07-05T14:38:49;27.00;1.00
11242;DHT22;5678;52.370;9.006;2022-07-05T14:41:17;27.00;1.00
11242;DHT22;5678;52.370;9.006;2022-07-05T14:43:45;27.00;1.00
11242;DHT22;5678;52.370;9.006;2022-07-05T14:46:13;27.00;1.00
11242;DHT22;5678;52.370;9.006;2022-07-05T14:48:45;26.90;1.00
11242;DHT22;5678;52.370;9.006;2022-07-05T14:51:14;26.90;1.00
11242;DHT22;5678;52.370;9.006;2022-07-05T14:53:43;26.80;1.00
11242;DHT22;5678;52.370;9.006;2022-07-05T14:56:14;26.80;1.00
11242;DHT22;5678;52.370;9.006;2022-07-05T14:58:42;26.80;1.00
11242;DHT22;5678;52.370;9.006;2022-07-05T15:01:10;26.80;1.00
11242;DHT22;5678;52.370;9.006;2022-07-05T15:03:38;26.70;1.00
11242;DHT22;5678;52.370;9.006;2022-07-05T15:06:07;26.50;1.00
11242;DHT22;5678;52.370;9.006;2022-07-05T15:08:35;26.30;1.00
11242;DHT22;5678;52.370;9.006;2022-07-05T15:11:05;26.50;1.00
11242;DHT22;5678;52.370;9.006;2022-07-05T15:13:33;26.50;1.00
11242;DHT22;5678;52.370;9.006;2022-07-05T15:16:02;26.40;1.00
11242;DHT22;5678;52.370;9.006;2022-07-05T15:18:31;26.20;1.00
11242;DHT22;5678;52.370;9.006;2022-07-05T15:20:59;25.90;1.00
11242;DHT22;5678;52.370;9.006;2022-07-05T15:23:29;25.80;1.00
11242;DHT22;5678;52.370;9.006;2022-07-05T15:25:57;25.80;1.00
11242;DHT22;5678;52.370;9.006;2022-07-05T15:28:27;26.10;1.00
11242;DHT22;5678;52.370;9.006;2022-07-05T15:30:55;26.40;1.00
11242;DHT22;5678;52.370;9.006;2022-07-05T15:33:23;26.40;1.00
11242;DHT22;5678;52.370;9.006;2022-07-05T15:35:56;26.40;1.00
11242;DHT22;5678;52.370;9.006;2022-07-05T15:38:25;26.10;1.00
11242;DHT22;5678;52.370;9.006;2022-07-05T15:40:54;26.10;1.00
11242;DHT22;5678;52.370;9.006;2022-07-05T15:43:23;26.00;1.00
11242;DHT22;5678;52.370;9.006;2022-07-05T15:45:54;25.90;1.00
11242;DHT22;5678;52.370;9.006;2022-07-05T15:48:22;25.80;1.00
11242;DHT22;5678;52.370;9.006;2022-07-05T15:50:50;25.90;1.00
11242;DHT22;5678;52.370;9.006;2022-07-05T15:53:26;25.80;1.00
11242;DHT22;5678;52.370;9.006;2022-07-05T15:55:55;25.70;1.00
11242;DHT22;5678;52.370;9.006;2022-07-05T15:58:26;25.60;1.00
11242;DHT22;5678;52.370;9.006;2022-07-05T16:00:56;25.50;1.00
11242;DHT22;5678;52.370;9.006;2022-07-05T16:03:26;25.40;1.00
11242;DHT22;5678;52.370;9.006;2022-07-05T16:05:54;25.30;1.00
11242;DHT22;5678;52.370;9.006;2022-07-05T16:08:25;25.10;1.00
11242;DHT22;5678;52.370;9.006;2022-07-05T16:10:53;24.90;1.00
11242;DHT22;5678;52.370;9.006;2022-07-05T16:13:22;24.90;1.00
11242;DHT22;5678;52.370;9.006;2022-07-05T16:15:51;25.10;1.00
11242;DHT22;5678;52.370;9.006;2022-07-05T16:18:38;25.40;1.00